Wetterdaten: Woche 17.02.14 - 23.02.14 (KW8)
Datum Zeit Temp. Aussen +5cm Feuchte Auss Luftdruck Regen Sonnenschein Regendauer UV Solar Windben
17.02.2014 00:00 4,8 C 2,8 C 88 % 1011,2 hPa 0,0 l/m 0,00 h 0,00 h 0,0 UV-I 0 W/m 1,6 km/h (1 Bft)
17.02.2014 01:00 4,6 C 2,5 C 88 % 1011,2 hPa 0,0 l/m 0,00 h 0,00 h 0,0 UV-I 0 W/m 1,1 km/h (1 Bft)
17.02.2014 02:00 3,9 C 1,8 C 89 % 1011,0 hPa 0,0 l/m 0,00 h 0,00 h 0,0 UV-I 0 W/m 0,1 km/h (0 Bft)
17.02.2014 03:00 3,5 C 2,0 C 91 % 1010,7 hPa 0,0 l/m 0,00 h 0,00 h 0,0 UV-I 0 W/m 3,3 km/h (1 Bft)
17.02.2014 04:00 3,2 C 2,1 C 91 % 1010,7 hPa 0,0 l/m 0,00 h 0,00 h 0,0 UV-I 0 W/m 5,1 km/h (1 Bft)
17.02.2014 05:00 3,3 C 2,2 C 92 % 1010,8 hPa 0,0 l/m 0,00 h 0,00 h 0,0 UV-I 0 W/m 6,9 km/h (2 Bft)
17.02.2014 06:00 3,7 C 2,6 C 92 % 1010,8 hPa 0,0 l/m 0,00 h 0,00 h 0,0 UV-I 0 W/m 4,0 km/h (1 Bft)
17.02.2014 07:00 3,9 C 2,3 C 92 % 1011,2 hPa 0,0 l/m 0,07 h 0,00 h 0,0 UV-I 8 W/m 2,5 km/h (1 Bft)
17.02.2014 08:00 4,3 C 3,3 C 92 % 1011,8 hPa 0,0 l/m 0,60 h 0,00 h 0,0 UV-I 63 W/m 8,0 km/h (2 Bft)
17.02.2014 09:00 5,3 C 4,7 C 89 % 1012,4 hPa 0,0 l/m 0,00 h 0,00 h 0,0 UV-I 47 W/m 8,8 km/h (2 Bft)
17.02.2014 10:00 6,5 C 6,1 C 88 % 1012,7 hPa 0,0 l/m 0,20 h 0,00 h 0,0 UV-I 124 W/m 5,4 km/h (1 Bft)
17.02.2014 11:00 8,0 C 7,7 C 83 % 1013,3 hPa 0,0 l/m 0,07 h 0,03 h 0,0 UV-I 144 W/m 10,1 km/h (2 Bft)
17.02.2014 12:00 8,4 C 8,1 C 82 % 1013,5 hPa 0,0 l/m 0,03 h 0,00 h 0,0 UV-I 162 W/m 12,0 km/h (2 Bft)
17.02.2014 13:00 9,9 C 9,7 C 77 % 1013,6 hPa 0,0 l/m 0,80 h 0,00 h 0,6 UV-I 420 W/m 17,4 km/h (3 Bft)
17.02.2014 14:00 10,2 C 9,7 C 74 % 1013,8 hPa 0,0 l/m 0,43 h 0,00 h 0,5 UV-I 259 W/m 11,6 km/h (2 Bft)
17.02.2014 15:00 9,9 C 9,3 C 73 % 1014,0 hPa 0,0 l/m 0,23 h 0,00 h 0,0 UV-I 157 W/m 10,7 km/h (2 Bft)
17.02.2014 16:00 9,4 C 8,4 C 75 % 1014,3 hPa 0,0 l/m 0,07 h 0,00 h 0,0 UV-I 74 W/m 8,4 km/h (2 Bft)
17.02.2014 17:00 8,5 C 6,3 C 77 % 1014,6 hPa 0,0 l/m 0,00 h 0,00 h 0,0 UV-I 18 W/m 2,1 km/h (1 Bft)
17.02.2014 18:00 6,0 C 3,2 C 85 % 1014,9 hPa 0,0 l/m 0,00 h 0,00 h 0,0 UV-I 0 W/m 0,0 km/h (0 Bft)
17.02.2014 19:00 4,9 C 2,2 C 89 % 1015,1 hPa 0,0 l/m 0,00 h 0,00 h 0,0 UV-I 0 W/m 0,0 km/h (0 Bft)
17.02.2014 20:00 4,8 C 2,1 C 90 % 1015,3 hPa 0,0 l/m 0,00 h 0,00 h 0,0 UV-I 0 W/m 0,0 km/h (0 Bft)
17.02.2014 21:00 4,6 C 1,9 C 91 % 1015,4 hPa 0,0 l/m 0,00 h 0,00 h 0,0 UV-I 0 W/m 0,0 km/h (0 Bft)
17.02.2014 22:00 4,7 C 2,1 C 90 % 1015,5 hPa 0,0 l/m 0,00 h 0,00 h 0,0 UV-I 0 W/m 2,1 km/h (1 Bft)
17.02.2014 23:00 4,1 C 2,0 C 91 % 1015,5 hPa 0,0 l/m 0,00 h 0,00 h 0,0 UV-I 0 W/m 2,8 km/h (1 Bft)
18.02.2014 00:00 3,5 C 1,7 C 92 % 1015,7 hPa 0,0 l/m 0,00 h 0,00 h 0,0 UV-I 0 W/m 2,3 km/h (1 Bft)
18.02.2014 01:00 3,7 C 1,9 C 91 % 1015,7 hPa 0,0 l/m 0,00 h 0,00 h 0,0 UV-I 0 W/m 6,5 km/h (2 Bft)
18.02.2014 02:00 3,8 C 2,2 C 92 % 1015,5 hPa 0,0 l/m 0,00 h 0,00 h 0,0 UV-I 0 W/m 2,2 km/h (1 Bft)
18.02.2014 03:00 3,5 C 1,9 C 93 % 1015,1 hPa 0,0 l/m 0,00 h 0,00 h 0,0 UV-I 0 W/m 1,9 km/h (1 Bft)
18.02.2014 04:00 3,5 C 2,1 C 93 % 1014,6 hPa 0,0 l/m 0,00 h 0,00 h 0,0 UV-I 0 W/m 10,4 km/h (2 Bft)
18.02.2014 05:00 3,4 C 2,0 C 93 % 1014,5 hPa 0,0 l/m 0,00 h 0,00 h 0,0 UV-I 0 W/m 9,6 km/h (2 Bft)
18.02.2014 06:00 3,4 C 2,0 C 93 % 1014,3 hPa 0,0 l/m 0,00 h 0,00 h 0,0 UV-I 0 W/m 11,2 km/h (2 Bft)
18.02.2014 07:00 3,4 C 2,2 C 93 % 1014,1 hPa 0,0 l/m 0,00 h 0,00 h 0,0 UV-I 6 W/m 8,4 km/h (2 Bft)
18.02.2014 08:00 3,6 C 2,4 C 93 % 1013,9 hPa 0,0 l/m 0,00 h 0,00 h 0,0 UV-I 22 W/m 11,2 km/h (2 Bft)
18.02.2014 09:00 4,4 C 3,5 C 91 % 1013,9 hPa 0,0 l/m 0,00 h 0,00 h 0,0 UV-I 67 W/m 12,3 km/h (3 Bft)
18.02.2014 10:00 5,1 C 4,6 C 88 % 1013,5 hPa 0,0 l/m 0,00 h 0,00 h 0,0 UV-I 101 W/m 13,7 km/h (3 Bft)
18.02.2014 11:00 5,6 C 5,0 C 86 % 1013,2 hPa 0,0 l/m 0,00 h 0,00 h 0,0 UV-I 108 W/m 17,2 km/h (3 Bft)
18.02.2014 12:00 6,4 C 6,3 C 84 % 1012,6 hPa 0,0 l/m 0,00 h 0,00 h 0,0 UV-I 180 W/m 16,6 km/h (3 Bft)
18.02.2014 13:00 7,5 C 7,5 C 81 % 1012,0 hPa 0,0 l/m 0,00 h 0,00 h 0,0 UV-I 178 W/m 14,3 km/h (3 Bft)
18.02.2014 14:00 7,4 C 7,2 C 81 % 1011,5 hPa 0,0 l/m 0,00 h 0,00 h 0,0 UV-I 125 W/m 12,3 km/h (3 Bft)
18.02.2014 15:00 7,5 C 6,9 C 81 % 1011,3 hPa 0,0 l/m 0,00 h 0,00 h 0,0 UV-I 101 W/m 9,7 km/h (2 Bft)
18.02.2014 16:00 7,2 C 6,3 C 82 % 1011,1 hPa 0,0 l/m 0,00 h 0,00 h 0,0 UV-I 55 W/m 8,6 km/h (2 Bft)
18.02.2014 17:00 6,7 C 5,1 C 83 % 1011,0 hPa 0,0 l/m 0,00 h 0,00 h 0,0 UV-I 14 W/m 3,8 km/h (1 Bft)
18.02.2014 18:00 6,2 C 4,4 C 86 % 1010,9 hPa 0,0 l/m 0,00 h 0,00 h 0,0 UV-I 0 W/m 0,3 km/h (0 Bft)
18.02.2014 19:00 5,9 C 4,0 C 86 % 1010,9 hPa 0,0 l/m 0,00 h 0,00 h 0,0 UV-I 0 W/m 0,2 km/h (0 Bft)
18.02.2014 20:00 5,8 C 3,9 C 87 % 1010,9 hPa 0,0 l/m 0,00 h 0,00 h 0,0 UV-I 0 W/m 0,4 km/h (0 Bft)
18.02.2014 21:00 5,9 C 4,0 C 87 % 1011,2 hPa 0,0 l/m 0,00 h 0,00 h 0,0 UV-I 0 W/m 0,7 km/h (0 Bft)
18.02.2014 22:00 7,0 C 5,5 C 81 % 1011,3 hPa 0,0 l/m 0,00 h 0,00 h 0,0 UV-I 0 W/m 5,1 km/h (1 Bft)
18.02.2014 23:00 7,1 C 5,5 C 82 % 1011,1 hPa 0,0 l/m 0,00 h 0,03 h 0,0 UV-I 0 W/m 3,7 km/h (1 Bft)
19.02.2014 00:00 6,6 C 5,0 C 89 % 1010,7 hPa 0,0 l/m 0,00 h 0,30 h 0,0 UV-I 0 W/m 3,3 km/h (1 Bft)
19.02.2014 01:00 6,7 C 5,0 C 91 % 1010,6 hPa 0,2 l/m 0,00 h 0,40 h 0,0 UV-I 0 W/m 4,4 km/h (1 Bft)
19.02.2014 02:00 6,6 C 4,7 C 92 % 1010,5 hPa 0,0 l/m 0,00 h 0,03 h 0,0 UV-I 0 W/m 8,1 km/h (2 Bft)
19.02.2014 03:00 6,8 C 5,0 C 92 % 1010,5 hPa 0,2 l/m 0,00 h 0,27 h 0,0 UV-I 0 W/m 7,0 km/h (2 Bft)
19.02.2014 04:00 6,8 C 5,0 C 92 % 1010,2 hPa 0,0 l/m 0,00 h 0,17 h 0,0 UV-I 0 W/m 8,5 km/h (2 Bft)
19.02.2014 05:00 6,8 C 5,0 C 92 % 1010,3 hPa 0,0 l/m 0,00 h 0,13 h 0,0 UV-I 0 W/m 6,9 km/h (2 Bft)
19.02.2014 06:00 6,7 C 5,0 C 93 % 1010,5 hPa 0,4 l/m 0,00 h 0,43 h 0,0 UV-I 0 W/m 6,9 km/h (2 Bft)
19.02.2014 07:00 6,7 C 5,0 C 94 % 1010,9 hPa 0,0 l/m 0,00 h 0,07 h 0,0 UV-I 5 W/m 7,3 km/h (2 Bft)
19.02.2014 08:00 6,9 C 5,4 C 94 % 1011,2 hPa 0,0 l/m 0,00 h 0,00 h 0,0 UV-I 33 W/m 6,7 km/h (2 Bft)
19.02.2014 09:00 7,3 C 5,7 C 93 % 1011,8 hPa 0,0 l/m 0,00 h 0,00 h 0,0 UV-I 54 W/m 10,1 km/h (2 Bft)
19.02.2014 10:00 7,7 C 6,4 C 92 % 1012,5 hPa 0,0 l/m 0,00 h 0,00 h 0,0 UV-I 74 W/m 11,7 km/h (2 Bft)
19.02.2014 11:00 8,2 C 7,6 C 90 % 1012,9 hPa 0,0 l/m 0,00 h 0,00 h 0,0 UV-I 138 W/m 10,6 km/h (2 Bft)
19.02.2014 12:00 9,0 C 8,7 C 87 % 1013,0 hPa 0,0 l/m 0,20 h 0,00 h 0,6 UV-I 198 W/m 11,0 km/h (2 Bft)
19.02.2014 13:00 9,1 C 8,5 C 85 % 1012,7 hPa 0,0 l/m 0,27 h 0,00 h 0,5 UV-I 199 W/m 12,3 km/h (3 Bft)
19.02.2014 14:00 9,5 C 8,9 C 82 % 1012,4 hPa 0,0 l/m 0,47 h 0,00 h 0,5 UV-I 246 W/m 13,6 km/h (3 Bft)
19.02.2014 15:00 9,5 C 8,5 C 81 % 1012,4 hPa 0,0 l/m 0,57 h 0,00 h 0,0 UV-I 145 W/m 7,5 km/h (2 Bft)
19.02.2014 16:00 9,5 C 8,5 C 81 % 1012,6 hPa 0,0 l/m 0,20 h 0,00 h 0,0 UV-I 92 W/m 6,7 km/h (2 Bft)
19.02.2014 17:00 8,9 C 7,5 C 82 % 1012,9 hPa 0,0 l/m 0,00 h 0,00 h 0,0 UV-I 27 W/m 3,4 km/h (1 Bft)
19.02.2014 18:00 8,3 C 6,3 C 86 % 1013,5 hPa 0,0 l/m 0,00 h 0,27 h 0,0 UV-I 0 W/m 0,0 km/h (0 Bft)
19.02.2014 19:00 7,9 C 5,9 C 87 % 1013,8 hPa 0,0 l/m 0,00 h 0,00 h 0,0 UV-I 0 W/m 0,0 km/h (0 Bft)
19.02.2014 20:00 7,8 C 6,1 C 86 % 1014,0 hPa 0,0 l/m 0,00 h 0,00 h 0,0 UV-I 0 W/m 1,0 km/h (0 Bft)
19.02.2014 21:00 7,7 C 6,1 C 87 % 1014,3 hPa 0,0 l/m 0,00 h 0,00 h 0,0 UV-I 0 W/m 2,1 km/h (1 Bft)
19.02.2014 22:00 7,6 C 6,1 C 89 % 1014,3 hPa 0,0 l/m 0,00 h 0,00 h 0,0 UV-I 0 W/m 2,6 km/h (1 Bft)
19.02.2014 23:00 7,4 C 6,1 C 91 % 1014,2 hPa 0,0 l/m 0,00 h 0,00 h 0,0 UV-I 0 W/m 3,6 km/h (1 Bft)
20.02.2014 00:00 7,3 C 6,0 C 91 % 1014,2 hPa 0,0 l/m 0,00 h 0,00 h 0,0 UV-I 0 W/m 3,5 km/h (1 Bft)
20.02.2014 01:00 7,1 C 5,6 C 90 % 1014,0 hPa 0,0 l/m 0,00 h 0,00 h 0,0 UV-I 0 W/m 5,6 km/h (1 Bft)
20.02.2014 02:00 7,0 C 5,6 C 90 % 1013,7 hPa 0,0 l/m 0,00 h 0,00 h 0,0 UV-I 0 W/m 7,9 km/h (2 Bft)
20.02.2014 03:00 6,9 C 5,6 C 90 % 1013,3 hPa 0,0 l/m 0,00 h 0,00 h 0,0 UV-I 0 W/m 3,2 km/h (1 Bft)
20.02.2014 04:00 6,7 C 5,3 C 91 % 1012,7 hPa 0,0 l/m 0,00 h 0,00 h 0,0 UV-I 0 W/m 2,7 km/h (1 Bft)
20.02.2014 05:00 6,6 C 5,1 C 91 % 1012,2 hPa 0,0 l/m 0,00 h 0,00 h 0,0 UV-I 0 W/m 6,7 km/h (2 Bft)
20.02.2014 06:00 6,3 C 5,0 C 90 % 1011,7 hPa 0,0 l/m 0,00 h 0,00 h 0,0 UV-I 0 W/m 10,0 km/h (2 Bft)
20.02.2014 07:00 5,7 C 4,2 C 90 % 1011,1 hPa 0,0 l/m 0,00 h 0,00 h 0,0 UV-I 8 W/m 9,9 km/h (2 Bft)
20.02.2014 08:00 5,4 C 3,9 C 91 % 1010,9 hPa 0,0 l/m 0,13 h 0,00 h 0,0 UV-I 39 W/m 12,6 km/h (3 Bft)
20.02.2014 09:00 7,3 C 5,8 C 86 % 1010,3 hPa 0,0 l/m 1,00 h 0,00 h 0,0 UV-I 198 W/m 18,4 km/h (3 Bft)
20.02.2014 10:00 9,7 C 8,7 C 77 % 1009,4 hPa 0,0 l/m 0,67 h 0,00 h 0,0 UV-I 230 W/m 23,2 km/h (4 Bft)
20.02.2014 11:00 10,8 C 10,4 C 75 % 1008,6 hPa 0,0 l/m 0,50 h 0,00 h 0,0 UV-I 249 W/m 20,9 km/h (4 Bft)
20.02.2014 12:00 11,5 C 10,7 C 73 % 1008,0 hPa 0,0 l/m 0,00 h 0,10 h 0,0 UV-I 166 W/m 22,2 km/h (4 Bft)
20.02.2014 13:00 11,4 C 10,5 C 75 % 1007,0 hPa 0,0 l/m 0,00 h 0,10 h 0,0 UV-I 110 W/m 20,9 km/h (4 Bft)
20.02.2014 14:00 11,0 C 9,5 C 79 % 1006,6 hPa 0,0 l/m 0,00 h 0,33 h 0,0 UV-I 65 W/m 13,6 km/h (3 Bft)
20.02.2014 15:00 10,5 C 9,1 C 83 % 1006,2 hPa 0,0 l/m 0,00 h 0,17 h 0,0 UV-I 32 W/m 12,9 km/h (3 Bft)
20.02.2014 16:00 10,0 C 8,4 C 87 % 1005,6 hPa 0,0 l/m 0,00 h 0,53 h 0,0 UV-I 24 W/m 14,0 km/h (3 Bft)
20.02.2014 17:00 9,1 C 7,2 C 92 % 1005,3 hPa 1,4 l/m 0,00 h 1,00 h 0,0 UV-I 8 W/m 10,8 km/h (2 Bft)
20.02.2014 18:00 8,7 C 7,2 C 95 % 1004,9 hPa 0,2 l/m 0,00 h 0,33 h 0,0 UV-I 0 W/m 13,0 km/h (3 Bft)
20.02.2014 19:00 8,8 C 7,2 C 95 % 1004,6 hPa 0,0 l/m 0,00 h 0,03 h 0,0 UV-I 0 W/m 12,2 km/h (2 Bft)
20.02.2014 20:00 9,0 C 7,1 C 93 % 1004,0 hPa 0,0 l/m 0,00 h 0,17 h 0,0 UV-I 0 W/m 13,8 km/h (3 Bft)
20.02.2014 21:00 9,2 C 7,2 C 92 % 1003,7 hPa 0,4 l/m 0,00 h 0,90 h 0,0 UV-I 0 W/m 10,6 km/h (2 Bft)
20.02.2014 22:00 9,0 C 7,2 C 94 % 1003,2 hPa 0,2 l/m 0,00 h 0,63 h 0,0 UV-I 0 W/m 11,7 km/h (2 Bft)
20.02.2014 23:00 9,0 C 7,2 C 95 % 1002,9 hPa 0,2 l/m 0,00 h 0,57 h 0,0 UV-I 0 W/m 7,6 km/h (2 Bft)
21.02.2014 00:00 9,3 C 7,4 C 96 % 1003,2 hPa 0,2 l/m 0,00 h 0,50 h 0,0 UV-I 0 W/m 6,2 km/h (2 Bft)
21.02.2014 01:00 9,0 C 6,9 C 95 % 1003,5 hPa 0,0 l/m 0,00 h 0,00 h 0,0 UV-I 0 W/m 5,7 km/h (1 Bft)
21.02.2014 02:00 8,0 C 5,7 C 93 % 1003,8 hPa 0,0 l/m 0,00 h 0,00 h 0,0 UV-I 0 W/m 5,1 km/h (1 Bft)
21.02.2014 03:00 7,7 C 5,5 C 93 % 1003,7 hPa 0,0 l/m 0,00 h 0,00 h 0,0 UV-I 0 W/m 4,8 km/h (1 Bft)
21.02.2014 04:00 7,5 C 5,8 C 93 % 1003,2 hPa 0,0 l/m 0,00 h 0,13 h 0,0 UV-I 0 W/m 5,5 km/h (1 Bft)
21.02.2014 05:00 7,7 C 5,8 C 92 % 1003,1 hPa 0,0 l/m 0,00 h 0,23 h 0,0 UV-I 0 W/m 7,5 km/h (2 Bft)
21.02.2014 06:00 7,5 C 5,5 C 92 % 1003,3 hPa 1,2 l/m 0,00 h 0,70 h 0,0 UV-I 0 W/m 13,4 km/h (3 Bft)
21.02.2014 07:00 6,6 C 4,6 C 93 % 1003,4 hPa 0,0 l/m 0,00 h 0,07 h 0,0 UV-I 7 W/m 6,6 km/h (2 Bft)
21.02.2014 08:00 6,6 C 5,0 C 94 % 1003,9 hPa 0,0 l/m 0,00 h 0,00 h 0,0 UV-I 29 W/m 12,6 km/h (3 Bft)
21.02.2014 09:00 7,0 C 4,9 C 90 % 1004,4 hPa 0,0 l/m 0,30 h 0,00 h 0,0 UV-I 113 W/m 12,4 km/h (3 Bft)
21.02.2014 10:00 8,0 C 5,6 C 82 % 1004,6 hPa 0,0 l/m 0,90 h 0,00 h 0,0 UV-I 289 W/m 20,5 km/h (4 Bft)
21.02.2014 11:00 8,4 C 6,5 C 79 % 1005,2 hPa 0,0 l/m 0,30 h 0,00 h 0,0 UV-I 209 W/m 18,1 km/h (3 Bft)
21.02.2014 12:00 8,3 C 7,3 C 78 % 1005,4 hPa 0,0 l/m 0,03 h 0,00 h 0,0 UV-I 150 W/m 16,7 km/h (3 Bft)
21.02.2014 13:00 8,5 C 7,4 C 77 % 1005,6 hPa 0,2 l/m 0,10 h 0,17 h 0,0 UV-I 159 W/m 17,7 km/h (3 Bft)
21.02.2014 14:00 7,6 C 6,2 C 85 % 1006,4 hPa 0,0 l/m 0,17 h 0,07 h 0,5 UV-I 183 W/m 14,2 km/h (3 Bft)
21.02.2014 15:00 9,4 C 8,2 C 76 % 1006,7 hPa 0,0 l/m 0,63 h 0,00 h 0,0 UV-I 261 W/m 15,3 km/h (3 Bft)
21.02.2014 16:00 8,8 C 7,1 C 74 % 1007,1 hPa 0,0 l/m 0,57 h 0,00 h 0,0 UV-I 126 W/m 10,8 km/h (2 Bft)
21.02.2014 17:00 8,1 C 6,2 C 71 % 1007,5 hPa 0,0 l/m 0,00 h 0,00 h 0,0 UV-I 14 W/m 7,6 km/h (2 Bft)
21.02.2014 18:00 6,9 C 5,0 C 76 % 1008,5 hPa 0,0 l/m 0,00 h 0,00 h 0,0 UV-I 0 W/m 10,5 km/h (2 Bft)
21.02.2014 19:00 5,9 C 4,1 C 80 % 1008,9 hPa 0,0 l/m 0,00 h 0,00 h 0,0 UV-I 0 W/m 10,8 km/h (2 Bft)
21.02.2014 20:00 5,3 C 3,4 C 83 % 1009,2 hPa 0,0 l/m 0,00 h 0,00 h 0,0 UV-I 0 W/m 5,9 km/h (2 Bft)
21.02.2014 21:00 4,5 C 2,8 C 86 % 1009,4 hPa 0,0 l/m 0,00 h 0,00 h 0,0 UV-I 0 W/m 4,4 km/h (1 Bft)
21.02.2014 22:00 4,6 C 3,0 C 86 % 1009,6 hPa 0,0 l/m 0,00 h 0,00 h 0,0 UV-I 0 W/m 8,8 km/h (2 Bft)
21.02.2014 23:00 4,2 C 2,5 C 87 % 1009,8 hPa 0,0 l/m 0,00 h 0,00 h 0,0 UV-I 0 W/m 5,3 km/h (1 Bft)
22.02.2014 00:00 4,0 C 2,2 C 88 % 1009,8 hPa 0,0 l/m 0,00 h 0,00 h 0,0 UV-I 0 W/m 7,1 km/h (2 Bft)
22.02.2014 01:00 4,3 C 2,6 C 86 % 1009,6 hPa 0,0 l/m 0,00 h 0,00 h 0,0 UV-I 0 W/m 6,9 km/h (2 Bft)
22.02.2014 02:00 4,3 C 2,7 C 85 % 1009,5 hPa 0,0 l/m 0,00 h 0,00 h 0,0 UV-I 0 W/m 7,5 km/h (2 Bft)
22.02.2014 03:00 4,1 C 2,4 C 86 % 1009,4 hPa 0,0 l/m 0,00 h 0,00 h 0,0 UV-I 0 W/m 7,5 km/h (2 Bft)
22.02.2014 04:00 4,2 C 2,8 C 85 % 1009,3 hPa 0,0 l/m 0,00 h 0,00 h 0,0 UV-I 0 W/m 14,5 km/h (3 Bft)
22.02.2014 05:00 4,2 C 2,8 C 86 % 1009,5 hPa 0,0 l/m 0,00 h 0,00 h 0,0 UV-I 0 W/m 13,0 km/h (3 Bft)
22.02.2014 06:00 4,1 C 2,5 C 87 % 1009,5 hPa 0,0 l/m 0,00 h 0,00 h 0,0 UV-I 0 W/m 10,5 km/h (2 Bft)
22.02.2014 07:00 4,1 C 2,8 C 87 % 1009,8 hPa 0,0 l/m 0,13 h 0,13 h 0,0 UV-I 20 W/m 9,9 km/h (2 Bft)
22.02.2014 08:00 4,5 C 3,0 C 88 % 1010,3 hPa 0,2 l/m 0,00 h 0,50 h 0,0 UV-I 20 W/m 12,1 km/h (2 Bft)
22.02.2014 09:00 5,1 C 3,8 C 88 % 1011,0 hPa 0,0 l/m 0,07 h 0,47 h 0,0 UV-I 64 W/m 16,0 km/h (3 Bft)
22.02.2014 10:00 5,4 C 4,6 C 88 % 1011,7 hPa 0,0 l/m 0,00 h 0,17 h 0,0 UV-I 96 W/m 13,6 km/h (3 Bft)
22.02.2014 11:00 6,0 C 5,3 C 87 % 1012,3 hPa 0,0 l/m 0,00 h 0,00 h 0,0 UV-I 106 W/m 15,7 km/h (3 Bft)
22.02.2014 12:00 7,0 C 6,7 C 84 % 1012,7 hPa 0,0 l/m 0,00 h 0,07 h 0,0 UV-I 166 W/m 17,0 km/h (3 Bft)
22.02.2014 13:00 7,5 C 7,1 C 82 % 1012,8 hPa 0,0 l/m 0,00 h 0,00 h 0,0 UV-I 151 W/m 13,2 km/h (3 Bft)
22.02.2014 14:00 7,7 C 7,1 C 81 % 1013,2 hPa 0,0 l/m 0,00 h 0,00 h 0,0 UV-I 100 W/m 10,8 km/h (2 Bft)
22.02.2014 15:00 7,5 C 6,9 C 81 % 1013,6 hPa 0,0 l/m 0,00 h 0,00 h 0,0 UV-I 102 W/m 11,4 km/h (2 Bft)
22.02.2014 16:00 7,7 C 6,4 C 80 % 1014,2 hPa 0,0 l/m 0,63 h 0,00 h 0,0 UV-I 149 W/m 12,5 km/h (3 Bft)
22.02.2014 17:00 7,1 C 5,8 C 81 % 1014,9 hPa 0,0 l/m 0,03 h 0,00 h 0,0 UV-I 30 W/m 8,8 km/h (2 Bft)
22.02.2014 18:00 6,6 C 5,0 C 82 % 1015,6 hPa 0,0 l/m 0,00 h 0,00 h 0,0 UV-I 5 W/m 8,0 km/h (2 Bft)
22.02.2014 19:00 6,7 C 5,0 C 81 % 1016,3 hPa 0,0 l/m 0,00 h 0,00 h 0,0 UV-I 0 W/m 12,3 km/h (3 Bft)
22.02.2014 20:00 5,9 C 4,0 C 82 % 1016,7 hPa 0,0 l/m 0,00 h 0,00 h 0,0 UV-I 0 W/m 9,1 km/h (2 Bft)
22.02.2014 21:00 5,0 C 3,1 C 84 % 1017,4 hPa 0,0 l/m 0,00 h 0,00 h 0,0 UV-I 0 W/m 5,8 km/h (2 Bft)
22.02.2014 22:00 4,3 C 2,7 C 86 % 1018,1 hPa 0,0 l/m 0,00 h 0,00 h 0,0 UV-I 0 W/m 7,2 km/h (2 Bft)
22.02.2014 23:00 4,2 C 2,4 C 86 % 1018,6 hPa 0,0 l/m 0,00 h 0,00 h 0,0 UV-I 0 W/m 5,0 km/h (1 Bft)
23.02.2014 00:00 3,7 C 2,1 C 86 % 1018,7 hPa 0,0 l/m 0,00 h 0,00 h 0,0 UV-I 0 W/m 3,9 km/h (1 Bft)
23.02.2014 01:00 3,2 C 1,1 C 87 % 1018,7 hPa 0,0 l/m 0,00 h 0,00 h 0,0 UV-I 0 W/m 1,4 km/h (1 Bft)
23.02.2014 02:00 2,6 C 0,4 C 89 % 1018,8 hPa 0,0 l/m 0,00 h 0,00 h 0,0 UV-I 0 W/m 0,8 km/h (0 Bft)
23.02.2014 03:00 1,9 C 0,0 C 90 % 1019,0 hPa 0,0 l/m 0,00 h 0,00 h 0,0 UV-I 0 W/m 2,5 km/h (1 Bft)
23.02.2014 04:00 1,5 C -0,2 C 91 % 1019,1 hPa 0,0 l/m 0,00 h 0,00 h 0,0 UV-I 0 W/m 4,3 km/h (1 Bft)
23.02.2014 05:00 1,2 C -0,3 C 92 % 1019,1 hPa 0,0 l/m 0,00 h 0,00 h 0,0 UV-I 0 W/m 5,3 km/h (1 Bft)
23.02.2014 06:00 1,0 C -0,6 C 93 % 1019,0 hPa 0,0 l/m 0,00 h 0,00 h 0,0 UV-I 0 W/m 8,9 km/h (2 Bft)
23.02.2014 07:00 0,7 C -0,6 C 93 % 1019,3 hPa 0,0 l/m 0,00 h 0,00 h 0,0 UV-I 11 W/m 7,7 km/h (2 Bft)
23.02.2014 08:00 1,1 C 0,3 C 94 % 1019,7 hPa 0,0 l/m 0,33 h 0,00 h 0,0 UV-I 64 W/m 11,1 km/h (2 Bft)
23.02.2014 09:00 3,8 C 2,4 C 91 % 1019,8 hPa 0,0 l/m 1,00 h 0,00 h 0,0 UV-I 201 W/m 14,3 km/h (3 Bft)
23.02.2014 10:00 7,3 C 5,5 C 80 % 1019,8 hPa 0,0 l/m 1,00 h 0,00 h 0,5 UV-I 310 W/m 18,7 km/h (3 Bft)
23.02.2014 11:00 9,5 C 7,8 C 72 % 1019,8 hPa 0,0 l/m 0,80 h 0,00 h 0,7 UV-I 363 W/m 19,1 km/h (3 Bft)
23.02.2014 12:00 10,3 C 9,5 C 72 % 1019,6 hPa 0,0 l/m 0,63 h 0,00 h 0,7 UV-I 338 W/m 21,1 km/h (4 Bft)
23.02.2014 13:00 11,1 C 9,9 C 69 % 1019,0 hPa 0,0 l/m 1,00 h 0,00 h 0,9 UV-I 413 W/m 20,5 km/h (4 Bft)
23.02.2014 14:00 11,3 C 9,8 C 69 % 1018,5 hPa 0,0 l/m 0,97 h 0,00 h 0,7 UV-I 376 W/m 24,5 km/h (4 Bft)
23.02.2014 15:00 10,7 C 9,5 C 71 % 1018,4 hPa 0,0 l/m 0,53 h 0,00 h 0,0 UV-I 200 W/m 20,8 km/h (4 Bft)
23.02.2014 16:00 10,0 C 8,6 C 73 % 1018,4 hPa 0,0 l/m 0,10 h 0,00 h 0,0 UV-I 96 W/m 19,0 km/h (3 Bft)
23.02.2014 17:00 9,3 C 7,6 C 75 % 1018,3 hPa 0,0 l/m 0,00 h 0,00 h 0,0 UV-I 31 W/m 13,4 km/h (3 Bft)
23.02.2014 18:00 8,1 C 5,9 C 81 % 1018,6 hPa 0,0 l/m 0,00 h 0,00 h 0,0 UV-I 0 W/m 5,1 km/h (1 Bft)
23.02.2014 19:00 7,1 C 4,9 C 83 % 1018,7 hPa 0,0 l/m 0,00 h 0,00 h 0,0 UV-I 0 W/m 5,1 km/h (1 Bft)
23.02.2014 20:00 6,2 C 4,1 C 85 % 1018,6 hPa 0,0 l/m 0,00 h 0,00 h 0,0 UV-I 0 W/m 4,0 km/h (1 Bft)
23.02.2014 21:00 5,6 C 3,7 C 87 % 1018,5 hPa 0,0 l/m 0,00 h 0,00 h 0,0 UV-I 0 W/m 8,0 km/h (2 Bft)
23.02.2014 22:00 5,2 C 3,3 C 87 % 1018,2 hPa 0,0 l/m 0,00 h 0,00 h 0,0 UV-I 0 W/m 8,1 km/h (2 Bft)
23.02.2014 23:00 4,8 C 3,0 C 87 % 1018,0 hPa 0,0 l/m 0,00 h 0,00 h 0,0 UV-I 0 W/m 9,6 km/h (2 Bft)
Min-Datum _ 23.02.14 23.02.14 23.02.14 20.02.14 - - - - - 17.02.14
_ Min-Zeit 07:54 04:04 13:16 23:42 - - - - - 00:00
Minimum _ 0,6 C -0,6 C 67 % 1002,7 hPa - - - - - 0,0 km/h (0 Bft)
Max-Datum _ 20.02.14 20.02.14 20.02.14 23.02.14 20.02.14 17.02.14 17.02.14 23.02.14 23.02.14 23.02.14
_ Max-Zeit 12:42 11:54 23:58 08:44 17:04 07:56 11:46 13:04 12:46 12:46
Maximum _ 11,7 C 11,1 C 96 % 1019,9 hPa 1,4 l/m 0,03 h 0,03 h 1,2 UV-I 636 W/m 46,3 km/h
S (6 Bft)
Durchschnitt _ 6,6 C 5,1 C 86 % 1012,0 hPa #5,0 l/m #16:44 h #10:16 h 0,6 UV-I 125 W/m 9,0 km/h (2 Bft)
© 2014 W. Hausmann